Time;durP1;ratioP1;P1;durP2;ratioP2;P2;SDS_P1;SDS_P2;PMS_P1;PMS_P2;Temp;Humidity;BMP_temperature;BMP_pressure;BME280_temperature;BME280_humidity;BME280_pressure;Samples;Min_cycle;Max_cycle;Signal;HPM_P1;HPM_P2
2021/08/28 00:00:17;;;;;;;;;1.25;1.00;;;;;18.69;53.32;101825.56;5059183;28;45356;-79
2021/08/28 00:02:43;;;;;;;;;1.75;1.75;;;;;18.63;53.29;101823.66;5059853;28;45432;-80
2021/08/28 00:05:09;;;;;;;;;0.00;0.00;;;;;18.59;53.66;101824.41;5041825;28;45398;-79
2021/08/28 00:07:35;;;;;;;;;2.75;1.00;;;;;18.52;54.00;101825.94;5042001;28;45712;-79
2021/08/28 00:10:01;;;;;;;;;2.00;2.00;;;;;18.48;54.05;101829.34;5059789;28;45274;-79
2021/08/28 00:12:26;;;;;;;;;4.00;2.50;;;;;18.45;54.51;101817.91;5059864;28;45201;-79
2021/08/28 00:14:53;;;;;;;;;2.50;2.00;;;;;18.41;54.44;101822.16;5060236;28;45634;-79
2021/08/28 00:17:18;;;;;;;;;6.50;3.25;;;;;18.39;54.55;101814.25;5041625;28;47685;-78
2021/08/28 00:19:44;;;;;;;;;1.00;1.00;;;;;18.38;54.76;101816.81;5059589;28;45446;-79
2021/08/28 00:22:11;;;;;;;;;2.00;2.00;;;;;18.34;54.67;101814.94;5040967;28;45184;-77
2021/08/28 00:24:36;;;;;;;;;3.00;3.00;;;;;18.30;54.90;101813.09;5037474;28;45426;-77
2021/08/28 00:27:05;;;;;;;;;2.50;2.50;;;;;18.28;55.22;101815.66;5038668;28;45410;-78
2021/08/28 00:29:31;;;;;;;;;3.75;1.50;;;;;18.22;55.59;101808.50;5042232;28;45360;-78
2021/08/28 00:31:57;;;;;;;;;2.00;2.00;;;;;18.17;55.74;101823.22;5059046;28;45304;-78
2021/08/28 00:34:23;;;;;;;;;0.75;0.75;;;;;18.16;55.51;101815.28;5059750;28;45154;-78
2021/08/28 00:36:48;;;;;;;;;5.00;2.00;;;;;18.15;55.67;101817.03;5041952;28;48027;-78
2021/08/28 00:39:14;;;;;;;;;2.50;2.00;;;;;18.10;55.77;101821.25;5058261;28;45412;-80
2021/08/28 00:41:39;;;;;;;;;2.25;1.25;;;;;18.10;56.39;101819.53;5058952;28;45321;-80
2021/08/28 00:44:05;;;;;;;;;2.25;2.00;;;;;18.11;56.33;101817.78;5058635;28;45261;-79
2021/08/28 00:46:31;;;;;;;;;2.50;1.25;;;;;18.12;56.09;101816.94;5058099;28;46394;-78
2021/08/28 00:48:58;;;;;;;;;2.00;2.00;;;;;18.10;56.42;101818.63;5057966;28;45351;-78
2021/08/28 00:51:25;;;;;;;;;1.50;1.00;;;;;18.07;56.48;101814.19;5058225;28;45276;-79
2021/08/28 00:53:51;;;;;;;;;2.00;2.00;;;;;18.05;56.91;101817.63;5058675;28;45496;-78
2021/08/28 00:56:17;;;;;;;;;1.75;1.75;;;;;18.03;56.61;101820.16;5057751;28;45943;-78
2021/08/28 00:58:43;;;;;;;;;4.75;3.25;;;;;18.03;56.39;101816.66;5057015;28;45775;-78
2021/08/28 01:01:20;;;;;;;;;2.25;1.25;;;;;18.01;56.88;101820.97;5057818;28;45252;-79
2021/08/28 01:03:52;;;;;;;;;1.50;1.50;;;;;17.99;56.96;101817.41;5040611;28;45545;-79
2021/08/28 01:06:36;;;;;;;;;1.00;1.00;;;;;17.95;57.21;101822.53;5058312;28;45386;-79
2021/08/28 01:09:20;;;;;;;;;2.00;1.00;;;;;17.93;56.98;101812.84;5057691;28;45602;-78
2021/08/28 01:11:56;;;;;;;;;1.50;1.00;;;;;17.92;56.96;101813.72;5058036;28;45395;-78
2021/08/28 01:14:28;;;;;;;;;3.00;1.00;;;;;17.91;57.30;101820.66;5040184;28;45408;-79
2021/08/28 01:17:01;;;;;;;;;4.00;2.25;;;;;17.93;57.51;101824.22;5057345;28;46314;-78
2021/08/28 01:19:35;;;;;;;;;4.25;2.00;;;;;17.94;57.25;101823.38;5057449;28;45287;-78
2021/08/28 01:22:08;;;;;;;;;3.25;2.25;;;;;17.97;57.23;101821.75;5057644;28;45328;-78
2021/08/28 01:24:35;;;;;;;;;2.75;2.75;;;;;17.97;57.22;101824.34;5057605;28;45244;-78
2021/08/28 01:27:13;;;;;;;;;5.75;2.50;;;;;17.93;57.20;101818.97;5057334;28;46372;-78
2021/08/28 01:29:40;;;;;;;;;2.00;2.00;;;;;17.92;57.34;101822.44;5057815;28;45434;-78
2021/08/28 01:32:07;;;;;;;;;1.25;1.25;;;;;17.94;57.13;101825.09;5057805;28;45438;-78
2021/08/28 01:34:34;;;;;;;;;2.50;1.50;;;;;17.92;57.09;101816.31;5057988;28;45520;-78
2021/08/28 01:37:02;;;;;;;;;3.00;1.25;;;;;17.97;57.26;101816.50;5057221;28;46289;-79
2021/08/28 01:39:30;;;;;;;;;2.75;1.00;;;;;17.97;57.07;101813.88;5057373;28;45422;-78
2021/08/28 01:42:02;;;;;;;;;2.00;2.00;;;;;17.92;57.12;101813.72;5057210;28;45449;-78
2021/08/28 01:44:28;;;;;;;;;2.00;1.75;;;;;17.91;57.31;101811.91;5057895;28;45387;-78
2021/08/28 01:46:54;;;;;;;;;4.00;2.00;;;;;17.91;57.02;101812.78;5056951;28;45434;-78
2021/08/28 01:49:22;;;;;;;;;3.75;2.00;;;;;17.91;56.93;101815.41;5057526;28;45371;-78
2021/08/28 01:51:49;;;;;;;;;2.25;2.00;;;;;17.89;56.96;101805.75;5057605;28;45395;-78
2021/08/28 01:54:15;;;;;;;;;2.50;2.00;;;;;17.89;57.11;101813.59;5057282;28;45297;-80
2021/08/28 01:56:41;;;;;;;;;3.00;2.00;;;;;17.88;57.25;101809.19;5058042;28;46398;-79
2021/08/28 01:59:07;;;;;;;;;4.50;2.00;;;;;17.86;57.28;101811.78;5059115;28;45354;-78
2021/08/28 02:01:33;;;;;;;;;2.00;2.00;;;;;17.82;57.46;101820.38;5039326;28;45302;-79
2021/08/28 02:03:59;;;;;;;;;3.00;3.00;;;;;17.78;57.34;101819.41;5057070;28;45446;-78
2021/08/28 02:06:27;;;;;;;;;4.50;2.50;;;;;17.74;57.56;101819.25;5056956;28;46487;-81
2021/08/28 02:08:58;;;;;;;;;3.25;2.00;;;;;17.70;57.62;101812.13;5056390;28;45631;-78
2021/08/28 02:11:33;;;;;;;;;2.75;1.50;;;;;17.64;57.80;101810.22;5038925;28;45357;-79
2021/08/28 02:14:06;;;;;;;;;2.75;2.00;;;;;17.60;57.93;101824.06;5056964;28;45387;-79
2021/08/28 02:16:35;;;;;;;;;4.00;1.00;;;;;17.57;58.00;101827.44;5057027;28;45967;-79
2021/08/28 02:19:10;;;;;;;;;5.75;1.00;;;;;17.55;58.26;101823.88;5056478;28;45343;-79
2021/08/28 02:21:37;;;;;;;;;4.25;2.50;;;;;17.54;58.00;101826.47;5056935;28;45510;-79
2021/08/28 02:24:10;;;;;;;;;3.00;3.00;;;;;17.50;58.13;101822.88;5056941;28;45330;-78
2021/08/28 02:26:39;;;;;;;;;3.00;1.50;;;;;17.43;58.35;101826.13;5056745;28;45318;-77
2021/08/28 02:29:16;;;;;;;;;2.50;2.25;;;;;17.40;58.42;101826.91;5056627;28;45816;-78
2021/08/28 02:31:44;;;;;;;;;2.50;2.00;;;;;17.39;58.40;101819.00;5056676;28;45399;-78
2021/08/28 02:34:11;;;;;;;;;2.75;2.75;;;;;17.35;58.81;101831.09;5056687;28;45324;-78
2021/08/28 02:36:41;;;;;;;;;3.25;3.00;;;;;17.35;58.75;101831.09;5056422;28;45780;-78
2021/08/28 02:39:08;;;;;;;;;2.00;2.00;;;;;17.31;58.84;101827.50;5056176;28;45338;-78
2021/08/28 02:41:34;;;;;;;;;3.50;2.75;;;;;17.33;58.52;101836.28;5056681;28;45362;-78
2021/08/28 02:44:01;;;;;;;;;4.00;3.00;;;;;17.33;58.65;101819.69;5056475;28;45360;-78
2021/08/28 02:46:28;;;;;;;;;3.50;2.75;;;;;17.36;58.89;101826.75;5056161;28;45360;-78
2021/08/28 02:48:55;;;;;;;;;3.75;2.00;;;;;17.35;58.92;101831.09;5056098;28;45816;-78
2021/08/28 02:51:23;;;;;;;;;2.75;2.00;;;;;17.35;58.60;101830.19;5056738;28;45347;-78
2021/08/28 02:53:50;;;;;;;;;1.50;1.50;;;;;17.33;58.47;101828.41;5038764;28;45461;-78
2021/08/28 02:56:20;;;;;;;;;2.25;1.00;;;;;17.28;58.50;101819.53;5055949;28;45390;-78
2021/08/28 02:58:46;;;;;;;;;3.75;1.00;;;;;17.26;58.54;101822.94;5055967;28;45248;-77
2021/08/28 03:01:12;;;;;;;;;3.50;3.50;;;;;17.25;58.98;101819.44;5056159;28;45252;-78
2021/08/28 03:03:40;;;;;;;;;4.50;4.00;;;;;17.23;59.16;101820.22;5056617;28;45468;-78
2021/08/28 03:06:07;;;;;;;;;3.50;2.00;;;;;17.20;59.25;101817.50;5055762;28;45419;-78
2021/08/28 03:08:35;;;;;;;;;3.50;2.75;;;;;17.15;59.26;101809.50;5055840;28;45841;-78
2021/08/28 03:11:01;;;;;;;;;1.75;1.00;;;;;17.13;59.68;101817.31;5056014;28;45240;-79
2021/08/28 03:13:27;;;;;;;;;4.75;3.50;;;;;17.11;59.39;101812.88;5056308;28;45470;-79
2021/08/28 03:15:55;;;;;;;;;2.00;2.00;;;;;17.09;59.46;101817.16;5037702;28;47881;-78
2021/08/28 03:18:24;;;;;;;;;3.75;2.00;;;;;17.09;59.52;101817.16;5056232;28;45888;-79
2021/08/28 03:20:54;;;;;;;;;3.75;2.00;;;;;17.10;59.48;101816.31;5056376;28;45345;-78
2021/08/28 03:23:22;;;;;;;;;3.75;2.50;;;;;17.08;59.55;101820.59;5040963;28;45469;-79
2021/08/28 03:25:49;;;;;;;;;3.25;2.00;;;;;17.05;59.63;101813.53;5060253;28;45347;-79
2021/08/28 03:28:19;;;;;;;;;2.50;2.50;;;;;17.01;59.53;101815.13;5059324;28;45659;-79
2021/08/28 03:30:48;;;;;;;;;3.75;2.50;;;;;17.00;59.85;101812.47;5061354;28;45414;-78
2021/08/28 03:33:16;;;;;;;;;1.00;1.00;;;;;16.99;60.14;101814.22;5059860;28;45367;-78
2021/08/28 03:35:45;;;;;;;;;4.00;2.75;;;;;16.99;59.58;101815.94;5059260;28;45439;-79
2021/08/28 03:38:11;;;;;;;;;7.75;3.00;;;;;16.97;60.12;101810.66;5040277;28;45395;-79
2021/08/28 03:40:38;;;;;;;;;1.50;1.50;;;;;16.97;59.98;101821.13;5059388;28;45780;-78
2021/08/28 03:43:03;;;;;;;;;4.75;2.50;;;;;16.98;60.08;101814.16;5059384;28;45331;-75
2021/08/28 03:45:30;;;;;;;;;4.25;2.25;;;;;16.93;59.84;101813.97;5059066;28;45392;-76
2021/08/28 03:47:57;;;;;;;;;3.75;3.75;;;;;16.92;60.27;101813.91;5040776;28;45608;-79
2021/08/28 03:50:23;;;;;;;;;2.25;2.00;;;;;16.92;60.17;101809.56;5041248;28;45486;-79
2021/08/28 03:52:49;;;;;;;;;2.00;2.00;;;;;16.89;60.20;101806.84;5059890;28;45556;-80
2021/08/28 03:55:15;;;;;;;;;5.00;2.75;;;;;16.89;60.51;101809.47;5059237;28;45465;-79
2021/08/28 03:57:41;;;;;;;;;2.00;2.00;;;;;16.86;60.30;101805.00;5059440;28;45742;-80
2021/08/28 04:00:07;;;;;;;;;5.75;3.00;;;;;16.86;60.16;101805.00;5058963;28;45311;-79
2021/08/28 04:02:33;;;;;;;;;3.00;3.00;;;;;16.82;60.58;101813.59;5059233;28;45478;-80
2021/08/28 04:04:59;;;;;;;;;2.75;2.25;;;;;16.79;60.65;101807.38;5057355;28;47013;-80
2021/08/28 04:07:25;;;;;;;;;2.75;1.00;;;;;16.80;60.23;101811.75;5059011;28;45261;-80
2021/08/28 04:09:50;;;;;;;;;2.00;2.00;;;;;16.79;60.71;101817.84;5058825;28;45291;-77
2021/08/28 04:12:16;;;;;;;;;2.75;2.75;;;;;16.78;60.54;101808.22;5058699;28;45268;-77
2021/08/28 04:14:42;;;;;;;;;3.50;3.00;;;;;16.76;60.90;101817.72;5058622;28;45555;-77
2021/08/28 04:17:07;;;;;;;;;3.50;2.50;;;;;16.74;60.70;101808.91;5058539;28;45384;-76
2021/08/28 04:19:33;;;;;;;;;3.00;1.75;;;;;16.72;61.09;101808.88;5040702;28;45371;-77
2021/08/28 04:21:59;;;;;;;;;4.00;2.75;;;;;16.72;60.67;101814.09;5058648;28;45511;-76
2021/08/28 04:24:24;;;;;;;;;4.00;3.75;;;;;16.69;60.97;101812.25;5058483;28;46375;-76
2021/08/28 04:26:50;;;;;;;;;4.00;2.75;;;;;16.69;60.64;101817.47;5058977;28;45347;-76
2021/08/28 04:29:15;;;;;;;;;4.00;2.00;;;;;16.69;60.88;101816.59;5058580;28;45292;-76
2021/08/28 04:31:41;;;;;;;;;3.75;3.75;;;;;16.68;61.05;101818.31;5058789;28;45368;-76
2021/08/28 04:34:07;;;;;;;;;3.00;2.75;;;;;16.67;61.35;101815.66;5057949;28;46273;-76
2021/08/28 04:36:32;;;;;;;;;2.25;2.25;;;;;16.62;61.29;101819.84;5058494;28;45249;-76
2021/08/28 04:38:58;;;;;;;;;6.50;3.50;;;;;16.60;61.15;101818.88;5057918;28;45348;-76
2021/08/28 04:41:23;;;;;;;;;5.25;4.25;;;;;16.58;61.41;101824.03;5058781;28;45297;-76
2021/08/28 04:43:49;;;;;;;;;4.25;4.25;;;;;16.54;61.58;101824.78;5058554;28;46148;-76
2021/08/28 04:46:15;;;;;;;;;2.75;2.75;;;;;16.51;61.76;101819.44;5039464;28;45446;-76
2021/08/28 04:48:40;;;;;;;;;5.00;2.00;;;;;16.51;61.78;101825.56;5058347;28;45324;-76
2021/08/28 04:51:06;;;;;;;;;4.25;4.00;;;;;16.49;61.13;101822.00;5058346;28;45251;-77
2021/08/28 04:53:32;;;;;;;;;3.00;3.00;;;;;16.51;61.71;101827.28;5058222;28;46107;-76
2021/08/28 04:55:57;;;;;;;;;3.00;3.00;;;;;16.52;61.99;101824.72;5057945;28;45416;-77
2021/08/28 04:58:23;;;;;;;;;5.00;4.75;;;;;16.57;61.66;101830.13;5058288;28;45284;-77
2021/08/28 05:00:48;;;;;;;;;6.00;2.75;;;;;16.58;61.36;101823.16;5058873;28;45359;-79
2021/08/28 05:03:14;;;;;;;;;3.00;2.75;;;;;16.59;61.47;101825.81;5057772;28;46440;-78
2021/08/28 05:05:39;;;;;;;;;7.25;4.25;;;;;16.58;61.59;101831.88;5057924;28;45453;-76
2021/08/28 05:08:05;;;;;;;;;4.50;3.00;;;;;16.57;61.59;101830.13;5057822;28;45351;-76
2021/08/28 05:10:31;;;;;;;;;8.00;4.75;;;;;16.62;61.79;101828.56;5057757;28;45413;-77
2021/08/28 05:12:56;;;;;;;;;4.00;3.50;;;;;16.63;61.68;101829.47;5057577;28;46092;-78
2021/08/28 05:15:22;;;;;;;;;4.75;4.75;;;;;16.61;61.96;101826.78;5058171;28;45247;-79
2021/08/28 05:17:47;;;;;;;;;5.00;3.25;;;;;16.59;61.70;101836.28;5058084;28;45679;-78
2021/08/28 05:20:13;;;;;;;;;2.50;2.50;;;;;16.60;61.77;101838.06;5058124;28;45780;-78
2021/08/28 05:22:38;;;;;;;;;5.50;4.25;;;;;16.65;62.04;101833.00;5058559;28;45277;-78
2021/08/28 05:25:05;;;;;;;;;5.00;4.00;;;;;16.70;62.01;101832.34;5039451;28;45377;-79
2021/08/28 05:27:30;;;;;;;;;4.50;3.75;;;;;16.76;61.64;101830.78;5059638;28;45272;-78
2021/08/28 05:29:56;;;;;;;;;5.50;4.00;;;;;16.79;61.33;101836.13;5057341;28;45411;-78
2021/08/28 05:32:22;;;;;;;;;4.75;3.25;;;;;16.82;61.69;101826.69;5057839;28;46301;-78
2021/08/28 05:34:47;;;;;;;;;5.50;5.00;;;;;16.83;61.72;101833.69;5057526;28;45414;-78
2021/08/28 05:37:13;;;;;;;;;4.75;3.50;;;;;16.84;61.03;101827.63;5057256;28;45312;-77
2021/08/28 05:39:39;;;;;;;;;6.00;3.50;;;;;16.87;61.44;101837.28;5057738;28;45289;-78
2021/08/28 05:42:04;;;;;;;;;8.00;4.75;;;;;16.89;61.17;101833.00;5038999;28;46230;-80
2021/08/28 05:44:30;;;;;;;;;3.50;3.00;;;;;16.93;61.23;101827.03;5056896;28;45396;-80
2021/08/28 05:46:55;;;;;;;;;4.00;3.00;;;;;16.98;61.05;101829.84;5057243;28;45463;-78
2021/08/28 05:49:21;;;;;;;;;6.00;4.50;;;;;17.03;61.01;101830.91;5058128;28;45365;-78
2021/08/28 05:51:47;;;;;;;;;6.50;3.00;;;;;17.06;60.91;101833.59;5066007;28;45446;-77
2021/08/28 05:54:12;;;;;;;;;5.25;3.25;;;;;17.10;60.90;101840.75;5057775;28;45646;-79
2021/08/28 05:56:38;;;;;;;;;2.00;2.00;;;;;17.12;60.57;101830.31;5063916;28;45175;-77
2021/08/28 05:59:04;;;;;;;;;7.50;5.00;;;;;17.13;61.17;101838.22;5060495;28;45246;-76
2021/08/28 06:01:29;;;;;;;;;4.25;4.25;;;;;17.17;60.74;101836.59;5038904;28;46366;-76
2021/08/28 06:03:55;;;;;;;;;5.50;4.00;;;;;17.18;60.95;101836.66;5056658;28;45356;-76
2021/08/28 06:06:20;;;;;;;;;5.25;4.00;;;;;17.21;60.94;101832.34;5057361;28;45445;-77
2021/08/28 06:08:46;;;;;;;;;6.50;3.50;;;;;17.23;60.99;101839.41;5057091;28;45502;-76
2021/08/28 06:11:11;;;;;;;;;4.25;2.75;;;;;17.22;60.86;101839.38;5056654;28;45331;-77
2021/08/28 06:13:37;;;;;;;;;6.00;4.50;;;;;17.22;60.95;101840.28;5056861;28;45407;-78
2021/08/28 06:16:03;;;;;;;;;3.50;3.00;;;;;17.28;60.71;101850.03;5038656;28;45344;-77
2021/08/28 06:18:28;;;;;;;;;5.00;3.00;;;;;17.28;60.65;101845.72;5057907;28;45524;-78
2021/08/28 06:20:54;;;;;;;;;8.25;5.50;;;;;17.30;60.87;101854.50;5061398;28;45392;-78
2021/08/28 06:23:20;;;;;;;;;4.50;3.75;;;;;17.27;60.88;101841.31;5056052;28;45417;-78
2021/08/28 06:25:45;;;;;;;;;7.50;5.00;;;;;17.25;61.06;101842.09;5056314;28;45288;-78
2021/08/28 06:28:11;;;;;;;;;6.75;5.50;;;;;17.22;61.43;101848.13;5055949;28;45561;-78
2021/08/28 06:30:36;;;;;;;;;5.50;4.00;;;;;17.23;61.47;101843.78;5055544;28;46000;-77
2021/08/28 06:33:02;;;;;;;;;9.50;5.25;;;;;17.21;61.55;101840.22;5055042;28;45453;-78
2021/08/28 06:35:28;;;;;;;;;7.00;3.75;;;;;17.25;61.51;101850.84;5055415;28;45385;-77
2021/08/28 06:37:54;;;;;;;;;6.25;3.50;;;;;17.30;61.64;101848.38;5053285;28;45569;-78
2021/08/28 06:40:20;;;;;;;;;7.00;6.50;;;;;17.32;61.40;101847.59;5055777;28;45348;-77
2021/08/28 06:42:46;;;;;;;;;8.75;5.75;;;;;17.38;61.14;101846.94;5055718;28;45722;-76
2021/08/28 06:45:12;;;;;;;;;6.25;4.25;;;;;17.43;61.22;101849.69;5055425;28;45341;-77
2021/08/28 06:47:37;;;;;;;;;5.75;4.75;;;;;17.44;61.53;101846.25;5037432;28;45569;-76
2021/08/28 06:50:03;;;;;;;;;4.75;4.00;;;;;17.49;61.29;101852.50;5055478;28;45424;-76
2021/08/28 06:52:29;;;;;;;;;5.00;4.00;;;;;17.53;61.30;101846.53;5037469;28;45359;-76
2021/08/28 06:54:55;;;;;;;;;4.50;2.75;;;;;17.57;61.45;101851.00;5055316;28;45451;-77
2021/08/28 06:57:20;;;;;;;;;4.25;3.00;;;;;17.64;61.14;101857.34;5054927;28;45760;-78
2021/08/28 06:59:46;;;;;;;;;7.00;5.50;;;;;17.69;61.05;101852.25;5055354;28;45340;-78
2021/08/28 07:02:11;;;;;;;;;7.00;3.00;;;;;17.71;61.32;101853.19;5054342;28;45861;-78
2021/08/28 07:04:37;;;;;;;;;5.00;5.00;;;;;17.78;61.10;101856.06;5055143;28;45446;-78
2021/08/28 07:07:03;;;;;;;;;7.25;6.25;;;;;17.84;60.84;101851.84;5054800;28;45881;-77
2021/08/28 07:09:28;;;;;;;;;3.25;3.00;;;;;17.87;60.82;101852.84;5055146;28;46453;-76
2021/08/28 07:11:54;;;;;;;;;6.50;4.50;;;;;17.91;60.76;101849.47;5055729;28;45343;-75
2021/08/28 07:14:20;;;;;;;;;4.75;4.00;;;;;17.97;60.61;101850.56;5056409;28;45300;-84
2021/08/28 07:16:45;;;;;;;;;5.50;3.00;;;;;18.01;60.58;101853.31;5060235;28;45630;-79
2021/08/28 07:19:11;;;;;;;;;4.50;3.25;;;;;18.08;60.57;101862.25;5057123;28;46323;-77
2021/08/28 07:21:37;;;;;;;;;5.50;4.00;;;;;18.14;60.48;101859.81;5061431;28;45446;-82
2021/08/28 07:24:02;;;;;;;;;7.75;5.00;;;;;18.15;60.71;101861.59;5057865;28;45479;-85
2021/08/28 07:26:29;;;;;;;;;4.00;4.00;;;;;18.20;60.56;101856.50;5057306;28;45415;-86
2021/08/28 07:28:55;;;;;;;;;3.25;3.25;;;;;18.27;60.67;101855.81;5055982;28;46332;-79
2021/08/28 07:31:20;;;;;;;;;4.00;4.00;;;;;18.31;60.59;101860.31;5055936;28;45503;-81
2021/08/28 07:33:47;;;;;;;;;6.75;5.00;;;;;18.32;60.98;101864.72;5055914;28;45273;-80
2021/08/28 07:36:12;;;;;;;;;3.75;3.00;;;;;18.38;61.00;101858.78;5032949;28;45526;-77
2021/08/28 07:38:38;;;;;;;;;4.75;3.00;;;;;18.41;60.91;101857.13;5051057;28;45854;-79
2021/08/28 07:41:03;;;;;;;;;4.50;3.50;;;;;18.44;60.74;101860.69;5037485;28;45342;-83
2021/08/28 07:43:30;;;;;;;;;4.00;3.50;;;;;18.43;61.03;101854.53;5038355;28;45201;-82
2021/08/28 07:45:56;;;;;;;;;5.00;4.00;;;;;18.46;60.91;101862.50;5063261;28;45486;-78
2021/08/28 07:48:21;;;;;;;;;4.75;4.50;;;;;18.54;60.82;101857.50;5060037;28;45695;-82
2021/08/28 07:50:47;;;;;;;;;4.00;4.00;;;;;18.56;60.90;101854.06;5058225;28;45380;-84
2021/08/28 07:53:13;;;;;;;;;5.25;4.75;;;;;18.62;60.55;101863.84;5055113;28;45364;-82
2021/08/28 07:55:39;;;;;;;;;4.25;4.00;;;;;18.65;60.74;101861.31;5056809;28;45620;-81
2021/08/28 07:58:04;;;;;;;;;6.25;3.75;;;;;18.72;60.77;101865.00;5055714;28;45504;-78
2021/08/28 08:00:30;;;;;;;;;7.25;4.00;;;;;18.79;60.22;101860.81;5057004;28;45530;-80
2021/08/28 08:02:55;;;;;;;;;3.00;3.00;;;;;18.85;60.25;101856.59;5056396;28;45675;-79
2021/08/28 08:05:21;;;;;;;;;5.75;4.50;;;;;18.92;60.09;101859.41;5056229;28;45656;-80
2021/08/28 08:07:47;;;;;;;;;6.50;5.00;;;;;18.95;60.08;101857.78;5058018;28;45431;-82
2021/08/28 08:10:12;;;;;;;;;5.25;4.25;;;;;18.96;60.02;101856.03;5061827;28;45404;-81
2021/08/28 08:12:38;;;;;;;;;2.75;2.75;;;;;18.97;60.33;101858.72;5044341;28;45233;-81
2021/08/28 08:15:04;;;;;;;;;5.50;4.25;;;;;19.00;59.99;101856.19;5065797;28;45248;-81
2021/08/28 08:17:30;;;;;;;;;8.00;5.50;;;;;19.02;60.21;101848.34;5066804;28;45907;-88
2021/08/28 08:19:56;;;;;;;;;6.75;5.00;;;;;19.03;59.96;101853.63;5066989;28;45368;-86
2021/08/28 08:22:22;;;;;;;;;5.00;4.00;;;;;19.09;59.57;101852.88;5046962;28;45454;-84
2021/08/28 08:24:47;;;;;;;;;7.50;5.50;;;;;19.20;59.95;101857.53;5062798;28;45560;-91
2021/08/28 08:27:13;;;;;;;;;5.25;3.00;;;;;19.26;59.43;101855.09;5060471;28;45436;-86
2021/08/28 08:29:39;;;;;;;;;7.00;5.00;;;;;19.28;59.79;101853.34;5041756;28;45509;-82
2021/08/28 08:32:05;;;;;;;;;7.75;4.75;;;;;19.29;59.24;101858.66;5059895;28;45374;-86
2021/08/28 08:34:31;;;;;;;;;5.25;4.00;;;;;19.28;59.52;101855.97;5041335;28;45605;-80
2021/08/28 08:36:57;;;;;;;;;4.00;4.00;;;;;19.28;59.75;101858.63;5058552;28;45312;-80
2021/08/28 08:39:23;;;;;;;;;9.75;4.75;;;;;19.28;59.56;101856.88;5059434;28;45356;-83
2021/08/28 08:41:52;;;;;;;;;5.75;5.75;;;;;19.29;60.06;101857.75;5060290;28;45361;-82
2021/08/28 08:44:21;;;;;;;;;5.75;3.50;;;;;19.29;60.13;101855.13;5063744;28;45478;-81
2021/08/28 08:46:48;;;;;;;;;6.00;4.00;;;;;19.30;60.15;101857.81;5061590;28;45586;-82
2021/08/28 08:49:14;;;;;;;;;5.50;4.00;;;;;19.34;60.14;101849.16;5062476;28;45304;-84
2021/08/28 08:51:41;;;;;;;;;5.75;4.75;;;;;19.43;60.21;101861.63;5043090;28;45410;-82
2021/08/28 08:54:06;;;;;;;;;7.00;4.00;;;;;19.49;59.86;101858.28;5060794;28;45296;-82
2021/08/28 08:56:34;;;;;;;;;5.25;3.50;;;;;19.57;59.83;101855.84;5040196;28;45387;-82
2021/08/28 08:59:00;;;;;;;;;8.50;4.00;;;;;19.65;59.01;101847.28;5059009;28;45773;-82
2021/08/28 09:01:26;;;;;;;;;4.00;4.00;;;;;19.82;59.26;101845.91;5060772;28;45416;-82
2021/08/28 09:03:54;;;;;;;;;5.00;3.25;;;;;19.91;58.87;101856.69;5060838;28;45470;-82
2021/08/28 09:06:20;;;;;;;;;5.75;3.75;;;;;20.01;58.52;101855.13;5061301;28;45313;-81
2021/08/28 09:08:46;;;;;;;;;6.75;3.00;;;;;20.10;58.51;101852.69;5060641;28;45384;-84
2021/08/28 09:11:23;;;;;;;;;4.75;3.00;;;;;20.22;58.32;101852.09;5064493;28;45313;-84
2021/08/28 09:13:49;;;;;;;;;3.75;3.25;;;;;20.31;57.16;101857.56;5045308;28;45315;-83
2021/08/28 09:16:32;;;;;;;;;4.00;3.25;;;;;20.39;56.81;101852.47;5060153;28;45366;-83
2021/08/28 09:18:59;;;;;;;;;4.75;3.00;;;;;20.42;56.64;101853.41;5059528;28;45190;-84
2021/08/28 09:21:31;;;;;;;;;5.50;4.00;;;;;20.43;55.77;101859.53;5059518;28;45411;-83
2021/08/28 09:24:02;;;;;;;;;5.75;4.00;;;;;20.46;56.01;101853.47;5062404;28;45206;-81
2021/08/28 09:26:33;;;;;;;;;4.00;3.25;;;;;20.43;55.06;101862.16;5060025;28;45671;-80
2021/08/28 09:29:00;;;;;;;;;4.00;2.00;;;;;20.44;54.92;101865.72;5039955;28;45823;-81
2021/08/28 09:31:41;;;;;;;;;4.50;4.50;;;;;20.49;55.76;101857.06;5058580;28;45455;-81
2021/08/28 09:34:20;;;;;;;;;5.00;4.25;;;;;20.56;55.52;101851.06;5059300;28;45617;-80
2021/08/28 09:36:52;;;;;;;;;6.25;5.25;;;;;20.60;54.64;101854.63;5059460;28;45482;-80
2021/08/28 09:39:18;;;;;;;;;4.00;4.00;;;;;20.61;55.43;101856.41;5062407;28;45947;-79
2021/08/28 09:41:44;;;;;;;;;5.00;4.75;;;;;20.67;54.35;101861.81;5061273;28;45328;-81
2021/08/28 09:44:10;;;;;;;;;4.00;3.75;;;;;20.75;54.46;101851.44;5057879;28;45585;-80
2021/08/28 09:46:37;;;;;;;;;4.75;3.00;;;;;20.82;54.41;101865.59;5057375;28;45933;-80
2021/08/28 09:49:04;;;;;;;;;7.25;4.75;;;;;20.83;53.88;101854.22;5057029;28;46353;-81
2021/08/28 09:51:34;;;;;;;;;4.75;3.75;;;;;20.85;53.73;101858.66;5057674;28;45428;-82
2021/08/28 09:54:01;;;;;;;;;3.50;2.50;;;;;20.89;53.90;101857.00;5057841;28;45498;-81
2021/08/28 09:56:27;;;;;;;;;6.00;2.50;;;;;20.99;53.97;101856.31;5060783;28;46613;-80
2021/08/28 09:58:53;;;;;;;;;5.75;4.25;;;;;21.08;53.21;101852.94;5039876;28;45537;-81
2021/08/28 10:01:21;;;;;;;;;6.75;5.00;;;;;21.17;53.04;101852.22;5059020;28;45289;-80
2021/08/28 10:04:05;;;;;;;;;5.25;3.25;;;;;21.27;53.49;101853.28;5056957;28;45602;-78
2021/08/28 10:06:31;;;;;;;;;5.00;4.75;;;;;21.31;53.49;101852.44;5058031;28;45495;-80
2021/08/28 10:08:57;;;;;;;;;7.00;4.00;;;;;21.31;53.64;101845.44;5063426;28;45740;-80
2021/08/28 10:11:23;;;;;;;;;6.00;4.25;;;;;21.40;53.33;101841.19;5040715;28;46149;-79
2021/08/28 10:13:50;;;;;;;;;5.50;3.25;;;;;21.51;53.49;101850.16;5058550;28;45387;-82
2021/08/28 10:16:17;;;;;;;;;4.00;4.00;;;;;21.58;52.54;101843.22;5057181;28;46523;-80
2021/08/28 10:18:48;;;;;;;;;4.25;4.00;;;;;21.64;52.67;101848.63;5056564;28;45889;-88
2021/08/28 10:21:14;;;;;;;;;5.25;3.75;;;;;21.69;52.13;101849.59;5039038;28;45399;-89
2021/08/28 10:23:42;;;;;;;;;5.00;5.00;;;;;21.70;52.40;101854.00;5041831;28;45430;-89
2021/08/28 10:26:10;;;;;;;;;3.00;3.00;;;;;21.68;51.67;101842.56;5059064;28;45868;-84
2021/08/28 10:28:40;;;;;;;;;7.25;5.00;;;;;21.60;52.55;101857.34;5067223;28;45804;-89
2021/08/28 10:31:09;;;;;;;;;8.25;6.50;;;;;21.56;51.99;101851.09;5055009;28;44876;-92
2021/08/28 10:33:34;;;;;;;;;6.25;3.75;;;;;21.62;51.95;101845.97;5059543;28;45260;-85
2021/08/28 10:36:00;;;;;;;;;6.25;6.00;;;;;21.71;52.00;101847.84;5062783;28;46700;-85
2021/08/28 10:38:28;;;;;;;;;5.25;5.25;;;;;21.84;51.67;101848.03;5062963;28;45356;-83
2021/08/28 10:40:58;;;;;;;;;4.75;3.75;;;;;21.86;51.54;101844.56;5060117;28;45383;-86
2021/08/28 10:43:25;;;;;;;;;5.50;4.00;;;;;21.90;51.46;101845.50;5065128;28;45401;-83
2021/08/28 10:45:52;;;;;;;;;3.00;2.75;;;;;21.89;51.43;101841.09;5065045;28;46440;-85
2021/08/28 10:48:21;;;;;;;;;9.00;5.25;;;;;21.95;51.71;101846.44;5048303;28;45524;-84
2021/08/28 10:50:51;;;;;;;;;4.75;4.50;;;;;21.90;51.93;101840.22;5062171;28;45437;-82
2021/08/28 10:53:24;;;;;;;;;4.25;4.25;;;;;21.88;51.80;101840.19;5039497;28;45583;-81
2021/08/28 10:55:50;;;;;;;;;6.00;5.50;;;;;21.83;51.80;101840.97;5038602;28;46854;-87
2021/08/28 10:58:20;;;;;;;;;5.50;4.50;;;;;21.73;51.89;101843.47;5057722;28;45224;-82
2021/08/28 11:00:59;;;;;;;;;5.25;3.25;;;;;21.62;51.67;101837.16;5058141;28;45398;-82
2021/08/28 11:03:35;;;;;;;;;7.25;5.00;;;;;21.55;52.15;101838.78;5043342;28;45520;-82
2021/08/28 11:06:19;;;;;;;;;4.50;4.50;;;;;21.46;52.46;101847.44;5060564;28;46002;-82
2021/08/28 11:09:05;;;;;;;;;7.25;3.00;;;;;21.40;54.05;101847.31;5041099;28;45655;-80
2021/08/28 11:11:38;;;;;;;;;5.25;5.25;;;;;21.39;54.32;101844.69;5059080;28;45526;-80
2021/08/28 11:14:10;;;;;;;;;5.50;5.50;;;;;21.47;54.26;101846.59;5038522;28;45621;-83
2021/08/28 11:17:04;;;;;;;;;3.50;3.00;;;;;21.60;54.23;101854.69;5058428;28;46306;-80
2021/08/28 11:19:35;;;;;;;;;7.25;4.75;;;;;21.67;54.35;101831.97;5043099;28;45506;-83
2021/08/28 11:22:05;;;;;;;;;6.25;4.50;;;;;21.83;53.50;101839.25;5063062;28;45209;-83
2021/08/28 11:24:31;;;;;;;;;3.50;2.50;;;;;22.01;53.88;101838.63;5062493;28;45471;-81